sensor_id;sensor_type;location;lat;lon;timestamp;P1;durP1;ratioP1;P2;durP2;ratioP2
15254;SDS011;7730;49.610;11.136;2022-08-11T00:01:22;7.45;;;3.40;;
15254;SDS011;7730;49.610;11.136;2022-08-11T00:03:53;8.38;;;3.20;;
15254;SDS011;7730;49.610;11.136;2022-08-11T00:06:25;7.82;;;3.35;;
15254;SDS011;7730;49.610;11.136;2022-08-11T00:08:52;7.75;;;3.33;;
15254;SDS011;7730;49.610;11.136;2022-08-11T00:11:20;6.57;;;3.22;;
15254;SDS011;7730;49.610;11.136;2022-08-11T00:13:48;8.73;;;3.70;;
15254;SDS011;7730;49.610;11.136;2022-08-11T00:16:16;8.93;;;3.90;;
15254;SDS011;7730;49.610;11.136;2022-08-11T00:18:46;9.25;;;4.05;;
15254;SDS011;7730;49.610;11.136;2022-08-11T00:21:13;8.85;;;4.07;;
15254;SDS011;7730;49.610;11.136;2022-08-11T00:23:41;7.53;;;3.65;;
15254;SDS011;7730;49.610;11.136;2022-08-11T00:26:08;7.03;;;3.10;;
15254;SDS011;7730;49.610;11.136;2022-08-11T00:28:35;6.35;;;2.80;;
15254;SDS011;7730;49.610;11.136;2022-08-11T00:31:03;6.70;;;2.40;;
15254;SDS011;7730;49.610;11.136;2022-08-11T00:33:32;5.18;;;2.70;;
15254;SDS011;7730;49.610;11.136;2022-08-11T00:36:01;6.82;;;2.70;;
15254;SDS011;7730;49.610;11.136;2022-08-11T00:38:31;6.97;;;2.90;;
15254;SDS011;7730;49.610;11.136;2022-08-11T00:41:00;5.15;;;2.47;;
15254;SDS011;7730;49.610;11.136;2022-08-11T00:43:37;7.85;;;2.80;;
15254;SDS011;7730;49.610;11.136;2022-08-11T00:46:09;5.72;;;2.50;;
15254;SDS011;7730;49.610;11.136;2022-08-11T00:48:39;5.22;;;2.42;;
15254;SDS011;7730;49.610;11.136;2022-08-11T00:51:12;6.18;;;2.60;;
15254;SDS011;7730;49.610;11.136;2022-08-11T00:53:45;7.60;;;2.70;;
15254;SDS011;7730;49.610;11.136;2022-08-11T00:56:22;7.78;;;2.88;;
15254;SDS011;7730;49.610;11.136;2022-08-11T01:01:47;8.10;;;2.80;;
15254;SDS011;7730;49.610;11.136;2022-08-11T01:04:31;6.22;;;2.40;;
15254;SDS011;7730;49.610;11.136;2022-08-11T01:07:29;4.72;;;2.45;;
15254;SDS011;7730;49.610;11.136;2022-08-11T01:10:10;6.50;;;2.40;;
15254;SDS011;7730;49.610;11.136;2022-08-11T01:12:43;6.68;;;2.63;;
15254;SDS011;7730;49.610;11.136;2022-08-11T01:15:18;9.30;;;2.65;;
15254;SDS011;7730;49.610;11.136;2022-08-11T01:17:55;5.60;;;2.50;;
15254;SDS011;7730;49.610;11.136;2022-08-11T01:23:30;5.53;;;2.75;;
15254;SDS011;7730;49.610;11.136;2022-08-11T01:31:56;5.03;;;2.33;;
15254;SDS011;7730;49.610;11.136;2022-08-11T01:43:09;4.68;;;2.33;;
15254;SDS011;7730;49.610;11.136;2022-08-11T01:45:55;5.65;;;2.50;;
15254;SDS011;7730;49.610;11.136;2022-08-11T01:48:28;5.47;;;2.50;;
15254;SDS011;7730;49.610;11.136;2022-08-11T01:51:04;7.18;;;2.47;;
15254;SDS011;7730;49.610;11.136;2022-08-11T01:53:37;4.53;;;2.30;;
15254;SDS011;7730;49.610;11.136;2022-08-11T01:56:14;5.47;;;2.60;;
15254;SDS011;7730;49.610;11.136;2022-08-11T01:58:49;5.28;;;2.42;;
15254;SDS011;7730;49.610;11.136;2022-08-11T02:01:27;5.93;;;2.47;;
15254;SDS011;7730;49.610;11.136;2022-08-11T02:03:58;5.28;;;2.70;;
15254;SDS011;7730;49.610;11.136;2022-08-11T02:06:34;5.40;;;2.65;;
15254;SDS011;7730;49.610;11.136;2022-08-11T02:12:09;6.45;;;2.58;;
15254;SDS011;7730;49.610;11.136;2022-08-11T02:14:41;5.03;;;2.33;;
15254;SDS011;7730;49.610;11.136;2022-08-11T02:17:14;8.48;;;2.70;;
15254;SDS011;7730;49.610;11.136;2022-08-11T02:19:48;5.93;;;2.60;;
15254;SDS011;7730;49.610;11.136;2022-08-11T02:22:35;6.68;;;2.50;;
15254;SDS011;7730;49.610;11.136;2022-08-11T02:25:25;6.25;;;2.78;;
15254;SDS011;7730;49.610;11.136;2022-08-11T02:28:00;4.47;;;2.30;;
15254;SDS011;7730;49.610;11.136;2022-08-11T02:30:31;6.80;;;2.55;;
15254;SDS011;7730;49.610;11.136;2022-08-11T02:33:11;6.40;;;2.95;;
15254;SDS011;7730;49.610;11.136;2022-08-11T02:35:50;6.97;;;2.47;;
15254;SDS011;7730;49.610;11.136;2022-08-11T02:38:23;4.68;;;2.50;;
15254;SDS011;7730;49.610;11.136;2022-08-11T02:40:53;4.80;;;2.35;;
15254;SDS011;7730;49.610;11.136;2022-08-11T02:43:26;6.88;;;2.60;;
15254;SDS011;7730;49.610;11.136;2022-08-11T02:46:00;6.88;;;2.50;;
15254;SDS011;7730;49.610;11.136;2022-08-11T02:48:33;6.25;;;2.50;;
15254;SDS011;7730;49.610;11.136;2022-08-11T02:51:24;4.82;;;2.40;;
15254;SDS011;7730;49.610;11.136;2022-08-11T02:53:55;11.05;;;2.90;;
15254;SDS011;7730;49.610;11.136;2022-08-11T02:56:26;14.50;;;3.25;;
15254;SDS011;7730;49.610;11.136;2022-08-11T02:58:55;14.57;;;3.03;;
15254;SDS011;7730;49.610;11.136;2022-08-11T03:01:44;9.55;;;3.30;;
15254;SDS011;7730;49.610;11.136;2022-08-11T03:04:16;6.10;;;3.38;;
15254;SDS011;7730;49.610;11.136;2022-08-11T03:06:47;8.55;;;3.03;;
15254;SDS011;7730;49.610;11.136;2022-08-11T03:09:16;7.10;;;2.75;;
15254;SDS011;7730;49.610;11.136;2022-08-11T03:11:49;6.90;;;2.85;;
15254;SDS011;7730;49.610;11.136;2022-08-11T03:14:38;6.32;;;2.60;;
15254;SDS011;7730;49.610;11.136;2022-08-11T03:17:29;5.07;;;2.42;;
15254;SDS011;7730;49.610;11.136;2022-08-11T03:20:02;7.57;;;2.70;;
15254;SDS011;7730;49.610;11.136;2022-08-11T03:22:32;8.15;;;2.78;;
15254;SDS011;7730;49.610;11.136;2022-08-11T03:25:04;6.47;;;2.63;;
15254;SDS011;7730;49.610;11.136;2022-08-11T03:27:45;5.93;;;2.60;;
15254;SDS011;7730;49.610;11.136;2022-08-11T03:30:14;7.47;;;2.55;;
15254;SDS011;7730;49.610;11.136;2022-08-11T03:32:49;12.65;;;2.80;;
15254;SDS011;7730;49.610;11.136;2022-08-11T03:35:32;22.42;;;3.60;;
15254;SDS011;7730;49.610;11.136;2022-08-11T03:38:04;15.63;;;3.30;;
15254;SDS011;7730;49.610;11.136;2022-08-11T03:40:44;10.48;;;3.20;;
15254;SDS011;7730;49.610;11.136;2022-08-11T03:43:39;14.10;;;3.30;;
15254;SDS011;7730;49.610;11.136;2022-08-11T03:46:13;9.60;;;2.63;;
15254;SDS011;7730;49.610;11.136;2022-08-11T03:48:46;10.15;;;2.90;;
15254;SDS011;7730;49.610;11.136;2022-08-11T03:51:17;12.20;;;3.05;;
15254;SDS011;7730;49.610;11.136;2022-08-11T03:53:59;9.93;;;2.90;;
15254;SDS011;7730;49.610;11.136;2022-08-11T03:56:38;10.43;;;3.13;;
15254;SDS011;7730;49.610;11.136;2022-08-11T03:59:14;12.55;;;3.22;;
15254;SDS011;7730;49.610;11.136;2022-08-11T04:01:52;12.65;;;3.60;;
15254;SDS011;7730;49.610;11.136;2022-08-11T04:04:46;25.67;;;5.10;;
15254;SDS011;7730;49.610;11.136;2022-08-11T04:07:27;20.50;;;3.60;;
15254;SDS011;7730;49.610;11.136;2022-08-11T04:15:49;6.15;;;2.63;;
15254;SDS011;7730;49.610;11.136;2022-08-11T04:18:33;7.68;;;2.60;;
15254;SDS011;7730;49.610;11.136;2022-08-11T04:21:15;4.35;;;2.40;;
15254;SDS011;7730;49.610;11.136;2022-08-11T04:24:04;6.35;;;2.50;;
15254;SDS011;7730;49.610;11.136;2022-08-11T04:29:34;7.18;;;2.72;;
15254;SDS011;7730;49.610;11.136;2022-08-11T04:32:08;5.68;;;2.50;;
15254;SDS011;7730;49.610;11.136;2022-08-11T04:37:46;5.18;;;2.70;;
15254;SDS011;7730;49.610;11.136;2022-08-11T04:45:56;6.75;;;2.70;;
15254;SDS011;7730;49.610;11.136;2022-08-11T04:48:36;5.20;;;2.70;;
15254;SDS011;7730;49.610;11.136;2022-08-11T04:51:37;5.80;;;2.72;;
15254;SDS011;7730;49.610;11.136;2022-08-11T04:54:30;6.30;;;2.63;;
15254;SDS011;7730;49.610;11.136;2022-08-11T04:57:22;7.75;;;2.75;;
15254;SDS011;7730;49.610;11.136;2022-08-11T05:00:12;4.38;;;2.40;;
15254;SDS011;7730;49.610;11.136;2022-08-11T05:03:19;4.82;;;2.60;;
15254;SDS011;7730;49.610;11.136;2022-08-11T05:06:08;5.03;;;2.53;;
15254;SDS011;7730;49.610;11.136;2022-08-11T05:08:48;5.32;;;2.50;;
15254;SDS011;7730;49.610;11.136;2022-08-11T05:11:29;5.90;;;2.40;;
15254;SDS011;7730;49.610;11.136;2022-08-11T05:14:12;7.00;;;2.50;;
15254;SDS011;7730;49.610;11.136;2022-08-11T05:17:03;6.25;;;2.47;;
15254;SDS011;7730;49.610;11.136;2022-08-11T05:19:50;6.50;;;2.50;;
15254;SDS011;7730;49.610;11.136;2022-08-11T05:22:34;7.55;;;2.60;;
15254;SDS011;7730;49.610;11.136;2022-08-11T05:25:21;5.40;;;2.17;;
15254;SDS011;7730;49.610;11.136;2022-08-11T05:28:10;9.10;;;2.75;;
15254;SDS011;7730;49.610;11.136;2022-08-11T05:30:56;7.65;;;2.60;;
15254;SDS011;7730;49.610;11.136;2022-08-11T05:33:44;6.88;;;2.63;;
15254;SDS011;7730;49.610;11.136;2022-08-11T05:36:33;5.28;;;2.63;;
15254;SDS011;7730;49.610;11.136;2022-08-11T05:39:04;5.78;;;2.60;;
15254;SDS011;7730;49.610;11.136;2022-08-11T05:41:50;7.72;;;2.55;;
15254;SDS011;7730;49.610;11.136;2022-08-11T05:44:43;8.57;;;2.70;;
15254;SDS011;7730;49.610;11.136;2022-08-11T05:47:28;5.70;;;2.30;;
15254;SDS011;7730;49.610;11.136;2022-08-11T05:50:13;7.70;;;2.67;;
15254;SDS011;7730;49.610;11.136;2022-08-11T05:52:59;5.78;;;2.55;;
15254;SDS011;7730;49.610;11.136;2022-08-11T05:55:45;5.72;;;2.50;;
15254;SDS011;7730;49.610;11.136;2022-08-11T05:58:31;7.97;;;2.65;;
15254;SDS011;7730;49.610;11.136;2022-08-11T06:01:00;5.72;;;2.60;;
15254;SDS011;7730;49.610;11.136;2022-08-11T06:03:28;4.35;;;2.38;;
15254;SDS011;7730;49.610;11.136;2022-08-11T06:05:56;5.32;;;2.50;;
15254;SDS011;7730;49.610;11.136;2022-08-11T06:08:27;6.57;;;2.50;;
15254;SDS011;7730;49.610;11.136;2022-08-11T06:10:58;5.88;;;2.45;;
15254;SDS011;7730;49.610;11.136;2022-08-11T06:13:26;5.05;;;2.50;;
15254;SDS011;7730;49.610;11.136;2022-08-11T06:15:53;7.18;;;2.47;;
15254;SDS011;7730;49.610;11.136;2022-08-11T06:18:22;8.55;;;2.70;;
15254;SDS011;7730;49.610;11.136;2022-08-11T06:20:50;4.47;;;2.40;;
15254;SDS011;7730;49.610;11.136;2022-08-11T06:23:18;7.30;;;2.58;;
15254;SDS011;7730;49.610;11.136;2022-08-11T06:25:48;6.93;;;2.90;;
15254;SDS011;7730;49.610;11.136;2022-08-11T06:28:16;5.53;;;2.50;;
15254;SDS011;7730;49.610;11.136;2022-08-11T06:30:44;9.35;;;2.60;;
15254;SDS011;7730;49.610;11.136;2022-08-11T06:33:13;5.82;;;2.65;;
15254;SDS011;7730;49.610;11.136;2022-08-11T06:35:47;7.55;;;2.88;;
15254;SDS011;7730;49.610;11.136;2022-08-11T06:38:22;7.28;;;2.58;;
15254;SDS011;7730;49.610;11.136;2022-08-11T06:40:52;5.25;;;2.60;;
15254;SDS011;7730;49.610;11.136;2022-08-11T06:43:42;6.53;;;2.80;;
15254;SDS011;7730;49.610;11.136;2022-08-11T06:46:11;5.88;;;2.70;;
15254;SDS011;7730;49.610;11.136;2022-08-11T06:48:41;6.35;;;2.50;;
15254;SDS011;7730;49.610;11.136;2022-08-11T06:51:10;5.47;;;2.60;;
15254;SDS011;7730;49.610;11.136;2022-08-11T06:53:37;3.85;;;2.35;;
15254;SDS011;7730;49.610;11.136;2022-08-11T06:56:05;5.93;;;2.80;;
15254;SDS011;7730;49.610;11.136;2022-08-11T06:58:51;5.32;;;2.50;;
15254;SDS011;7730;49.610;11.136;2022-08-11T07:01:38;6.50;;;2.60;;
15254;SDS011;7730;49.610;11.136;2022-08-11T07:04:10;6.97;;;2.70;;
15254;SDS011;7730;49.610;11.136;2022-08-11T07:06:43;8.13;;;2.78;;
15254;SDS011;7730;49.610;11.136;2022-08-11T07:09:44;4.80;;;2.45;;
15254;SDS011;7730;49.610;11.136;2022-08-11T07:12:39;7.78;;;2.78;;
15254;SDS011;7730;49.610;11.136;2022-08-11T07:15:26;7.15;;;3.13;;
15254;SDS011;7730;49.610;11.136;2022-08-11T07:18:06;6.82;;;2.85;;
15254;SDS011;7730;49.610;11.136;2022-08-11T07:20:52;5.22;;;2.58;;
15254;SDS011;7730;49.610;11.136;2022-08-11T07:23:40;7.32;;;2.40;;
15254;SDS011;7730;49.610;11.136;2022-08-11T07:26:25;4.18;;;2.20;;
15254;SDS011;7730;49.610;11.136;2022-08-11T07:29:19;7.25;;;2.50;;
15254;SDS011;7730;49.610;11.136;2022-08-11T07:31:47;7.97;;;2.80;;
15254;SDS011;7730;49.610;11.136;2022-08-11T07:34:17;6.57;;;2.50;;
15254;SDS011;7730;49.610;11.136;2022-08-11T07:36:46;5.05;;;2.38;;
15254;SDS011;7730;49.610;11.136;2022-08-11T07:39:17;5.22;;;2.50;;
15254;SDS011;7730;49.610;11.136;2022-08-11T07:41:45;4.50;;;2.47;;
15254;SDS011;7730;49.610;11.136;2022-08-11T07:44:13;10.63;;;2.75;;
15254;SDS011;7730;49.610;11.136;2022-08-11T07:46:41;11.15;;;3.28;;
15254;SDS011;7730;49.610;11.136;2022-08-11T07:49:27;6.78;;;2.17;;
15254;SDS011;7730;49.610;11.136;2022-08-11T07:52:12;7.07;;;2.50;;
15254;SDS011;7730;49.610;11.136;2022-08-11T07:54:53;5.43;;;2.47;;
15254;SDS011;7730;49.610;11.136;2022-08-11T07:57:21;7.47;;;2.63;;
15254;SDS011;7730;49.610;11.136;2022-08-11T08:00:06;7.25;;;2.40;;
15254;SDS011;7730;49.610;11.136;2022-08-11T08:02:51;3.83;;;2.10;;
15254;SDS011;7730;49.610;11.136;2022-08-11T08:05:36;5.93;;;2.63;;
15254;SDS011;7730;49.610;11.136;2022-08-11T08:08:21;7.18;;;2.70;;
15254;SDS011;7730;49.610;11.136;2022-08-11T08:11:08;9.73;;;2.60;;
15254;SDS011;7730;49.610;11.136;2022-08-11T08:13:52;5.20;;;2.58;;
15254;SDS011;7730;49.610;11.136;2022-08-11T08:16:38;4.45;;;2.30;;
15254;SDS011;7730;49.610;11.136;2022-08-11T08:19:23;6.38;;;2.50;;
15254;SDS011;7730;49.610;11.136;2022-08-11T08:21:50;7.72;;;2.60;;
15254;SDS011;7730;49.610;11.136;2022-08-11T08:24:18;4.30;;;2.03;;
15254;SDS011;7730;49.610;11.136;2022-08-11T08:26:46;5.88;;;2.40;;
15254;SDS011;7730;49.610;11.136;2022-08-11T08:29:27;6.10;;;2.38;;
15254;SDS011;7730;49.610;11.136;2022-08-11T08:32:13;5.05;;;2.55;;
15254;SDS011;7730;49.610;11.136;2022-08-11T08:34:41;6.63;;;2.33;;
15254;SDS011;7730;49.610;11.136;2022-08-11T08:37:08;6.45;;;2.50;;
15254;SDS011;7730;49.610;11.136;2022-08-11T08:39:35;6.80;;;2.08;;
15254;SDS011;7730;49.610;11.136;2022-08-11T08:42:05;2.80;;;1.75;;
15254;SDS011;7730;49.610;11.136;2022-08-11T08:44:33;3.85;;;2.00;;
15254;SDS011;7730;49.610;11.136;2022-08-11T08:47:01;5.53;;;2.20;;
15254;SDS011;7730;49.610;11.136;2022-08-11T08:49:30;5.28;;;2.40;;
15254;SDS011;7730;49.610;11.136;2022-08-11T08:52:00;5.80;;;2.22;;
15254;SDS011;7730;49.610;11.136;2022-08-11T08:54:29;4.90;;;2.25;;
15254;SDS011;7730;49.610;11.136;2022-08-11T08:56:59;6.53;;;2.15;;
15254;SDS011;7730;49.610;11.136;2022-08-11T08:59:30;4.65;;;2.33;;
15254;SDS011;7730;49.610;11.136;2022-08-11T09:01:59;4.70;;;2.17;;
15254;SDS011;7730;49.610;11.136;2022-08-11T09:04:26;3.92;;;1.98;;
15254;SDS011;7730;49.610;11.136;2022-08-11T09:06:55;2.13;;;1.52;;
15254;SDS011;7730;49.610;11.136;2022-08-11T09:09:22;3.63;;;1.98;;
15254;SDS011;7730;49.610;11.136;2022-08-11T09:11:50;6.00;;;2.55;;
15254;SDS011;7730;49.610;11.136;2022-08-11T09:14:18;5.68;;;2.08;;
15254;SDS011;7730;49.610;11.136;2022-08-11T09:16:47;4.18;;;2.10;;
15254;SDS011;7730;49.610;11.136;2022-08-11T09:19:19;6.55;;;2.10;;
15254;SDS011;7730;49.610;11.136;2022-08-11T09:21:47;5.30;;;2.08;;
15254;SDS011;7730;49.610;11.136;2022-08-11T09:24:36;6.97;;;2.60;;
15254;SDS011;7730;49.610;11.136;2022-08-11T09:27:21;3.92;;;2.00;;
15254;SDS011;7730;49.610;11.136;2022-08-11T09:29:48;5.43;;;2.00;;
15254;SDS011;7730;49.610;11.136;2022-08-11T09:32:19;5.15;;;2.40;;
15254;SDS011;7730;49.610;11.136;2022-08-11T09:34:47;6.68;;;2.60;;
15254;SDS011;7730;49.610;11.136;2022-08-11T09:37:16;4.35;;;2.08;;
15254;SDS011;7730;49.610;11.136;2022-08-11T09:40:01;5.43;;;2.20;;
15254;SDS011;7730;49.610;11.136;2022-08-11T09:42:45;5.57;;;2.20;;
15254;SDS011;7730;49.610;11.136;2022-08-11T09:45:31;7.40;;;2.20;;
15254;SDS011;7730;49.610;11.136;2022-08-11T09:48:00;6.97;;;2.42;;
15254;SDS011;7730;49.610;11.136;2022-08-11T09:50:29;7.20;;;2.00;;
15254;SDS011;7730;49.610;11.136;2022-08-11T09:52:56;5.07;;;2.15;;
15254;SDS011;7730;49.610;11.136;2022-08-11T09:55:25;5.28;;;2.20;;
15254;SDS011;7730;49.610;11.136;2022-08-11T09:57:52;3.85;;;2.30;;
15254;SDS011;7730;49.610;11.136;2022-08-11T10:00:37;8.45;;;2.20;;
15254;SDS011;7730;49.610;11.136;2022-08-11T10:03:06;4.90;;;2.30;;
15254;SDS011;7730;49.610;11.136;2022-08-11T10:05:34;7.68;;;2.15;;
15254;SDS011;7730;49.610;11.136;2022-08-11T10:08:20;6.78;;;2.20;;
15254;SDS011;7730;49.610;11.136;2022-08-11T10:10:48;6.22;;;2.13;;
15254;SDS011;7730;49.610;11.136;2022-08-11T10:13:16;4.75;;;2.30;;
15254;SDS011;7730;49.610;11.136;2022-08-11T10:15:49;5.97;;;2.40;;
15254;SDS011;7730;49.610;11.136;2022-08-11T10:18:19;5.70;;;2.30;;
15254;SDS011;7730;49.610;11.136;2022-08-11T10:21:16;2.65;;;1.70;;
15254;SDS011;7730;49.610;11.136;2022-08-11T10:23:49;2.83;;;1.92;;
15254;SDS011;7730;49.610;11.136;2022-08-11T10:26:36;5.60;;;2.40;;
15254;SDS011;7730;49.610;11.136;2022-08-11T10:29:19;4.15;;;1.75;;
15254;SDS011;7730;49.610;11.136;2022-08-11T10:32:04;3.95;;;1.98;;
15254;SDS011;7730;49.610;11.136;2022-08-11T10:34:51;6.22;;;2.40;;
15254;SDS011;7730;49.610;11.136;2022-08-11T10:37:19;7.45;;;2.20;;
15254;SDS011;7730;49.610;11.136;2022-08-11T10:39:47;4.68;;;2.00;;
15254;SDS011;7730;49.610;11.136;2022-08-11T10:42:14;7.38;;;2.05;;
15254;SDS011;7730;49.610;11.136;2022-08-11T10:44:59;6.25;;;2.10;;
15254;SDS011;7730;49.610;11.136;2022-08-11T10:47:26;5.90;;;2.00;;
15254;SDS011;7730;49.610;11.136;2022-08-11T10:50:00;3.05;;;1.92;;
15254;SDS011;7730;49.610;11.136;2022-08-11T10:52:46;3.72;;;2.10;;
15254;SDS011;7730;49.610;11.136;2022-08-11T10:55:32;4.57;;;1.92;;
15254;SDS011;7730;49.610;11.136;2022-08-11T10:58:17;4.45;;;2.00;;
15254;SDS011;7730;49.610;11.136;2022-08-11T11:01:02;4.07;;;1.90;;
15254;SDS011;7730;49.610;11.136;2022-08-11T11:03:30;4.85;;;1.80;;
15254;SDS011;7730;49.610;11.136;2022-08-11T11:06:02;5.25;;;2.10;;
15254;SDS011;7730;49.610;11.136;2022-08-11T11:08:30;6.13;;;2.10;;
15254;SDS011;7730;49.610;11.136;2022-08-11T11:11:16;5.35;;;2.05;;
15254;SDS011;7730;49.610;11.136;2022-08-11T11:13:45;4.07;;;2.00;;
15254;SDS011;7730;49.610;11.136;2022-08-11T11:16:30;3.97;;;2.10;;
15254;SDS011;7730;49.610;11.136;2022-08-11T11:19:31;5.47;;;2.30;;
15254;SDS011;7730;49.610;11.136;2022-08-11T11:22:05;4.22;;;2.00;;
15254;SDS011;7730;49.610;11.136;2022-08-11T11:24:52;3.95;;;2.00;;
15254;SDS011;7730;49.610;11.136;2022-08-11T11:27:24;3.00;;;1.80;;
15254;SDS011;7730;49.610;11.136;2022-08-11T11:29:55;6.60;;;2.10;;
15254;SDS011;7730;49.610;11.136;2022-08-11T11:32:26;4.43;;;2.00;;
15254;SDS011;7730;49.610;11.136;2022-08-11T11:35:00;7.13;;;2.28;;
15254;SDS011;7730;49.610;11.136;2022-08-11T11:37:31;3.42;;;2.00;;
15254;SDS011;7730;49.610;11.136;2022-08-11T11:39:59;3.67;;;1.65;;
15254;SDS011;7730;49.610;11.136;2022-08-11T11:42:28;2.97;;;1.35;;
15254;SDS011;7730;49.610;11.136;2022-08-11T11:44:55;2.60;;;1.65;;
15254;SDS011;7730;49.610;11.136;2022-08-11T11:47:23;4.97;;;2.05;;
15254;SDS011;7730;49.610;11.136;2022-08-11T11:49:51;3.50;;;2.00;;
15254;SDS011;7730;49.610;11.136;2022-08-11T11:52:19;5.25;;;1.90;;
15254;SDS011;7730;49.610;11.136;2022-08-11T11:54:49;5.18;;;1.85;;
15254;SDS011;7730;49.610;11.136;2022-08-11T11:57:17;3.83;;;1.80;;
15254;SDS011;7730;49.610;11.136;2022-08-11T12:00:03;3.35;;;1.90;;
15254;SDS011;7730;49.610;11.136;2022-08-11T12:02:48;3.63;;;1.67;;
15254;SDS011;7730;49.610;11.136;2022-08-11T12:05:15;5.53;;;2.10;;
15254;SDS011;7730;49.610;11.136;2022-08-11T12:07:43;6.45;;;2.00;;
15254;SDS011;7730;49.610;11.136;2022-08-11T12:10:29;3.53;;;1.95;;
15254;SDS011;7730;49.610;11.136;2022-08-11T12:12:58;5.93;;;2.15;;
15254;SDS011;7730;49.610;11.136;2022-08-11T12:15:43;3.97;;;2.00;;
15254;SDS011;7730;49.610;11.136;2022-08-11T12:18:11;6.28;;;2.10;;
15254;SDS011;7730;49.610;11.136;2022-08-11T12:20:38;2.92;;;1.98;;
15254;SDS011;7730;49.610;11.136;2022-08-11T12:23:06;5.55;;;1.80;;
15254;SDS011;7730;49.610;11.136;2022-08-11T12:25:52;3.25;;;1.85;;
15254;SDS011;7730;49.610;11.136;2022-08-11T12:28:37;4.00;;;2.00;;
15254;SDS011;7730;49.610;11.136;2022-08-11T12:31:04;5.60;;;1.77;;
15254;SDS011;7730;49.610;11.136;2022-08-11T12:33:33;6.47;;;2.13;;
15254;SDS011;7730;49.610;11.136;2022-08-11T12:36:01;4.80;;;1.98;;
15254;SDS011;7730;49.610;11.136;2022-08-11T12:38:28;6.07;;;1.85;;
15254;SDS011;7730;49.610;11.136;2022-08-11T12:40:57;4.18;;;2.00;;
15254;SDS011;7730;49.610;11.136;2022-08-11T12:43:42;6.90;;;2.10;;
15254;SDS011;7730;49.610;11.136;2022-08-11T12:46:28;4.35;;;2.03;;
15254;SDS011;7730;49.610;11.136;2022-08-11T12:48:57;3.58;;;1.67;;
15254;SDS011;7730;49.610;11.136;2022-08-11T12:51:44;4.60;;;2.00;;
15254;SDS011;7730;49.610;11.136;2022-08-11T12:54:23;5.20;;;1.98;;
15254;SDS011;7730;49.610;11.136;2022-08-11T12:56:54;4.78;;;2.25;;
15254;SDS011;7730;49.610;11.136;2022-08-11T12:59:40;4.28;;;2.00;;
15254;SDS011;7730;49.610;11.136;2022-08-11T13:02:25;4.95;;;1.80;;
15254;SDS011;7730;49.610;11.136;2022-08-11T13:05:12;3.40;;;1.83;;
15254;SDS011;7730;49.610;11.136;2022-08-11T13:07:39;4.97;;;2.00;;
15254;SDS011;7730;49.610;11.136;2022-08-11T13:10:08;2.83;;;1.90;;
15254;SDS011;7730;49.610;11.136;2022-08-11T13:12:37;4.85;;;2.08;;
15254;SDS011;7730;49.610;11.136;2022-08-11T13:15:13;3.95;;;2.00;;
15254;SDS011;7730;49.610;11.136;2022-08-11T13:17:40;5.25;;;2.13;;
15254;SDS011;7730;49.610;11.136;2022-08-11T13:20:09;5.05;;;2.00;;
15254;SDS011;7730;49.610;11.136;2022-08-11T13:22:37;3.10;;;1.83;;
15254;SDS011;7730;49.610;11.136;2022-08-11T13:25:05;5.95;;;2.10;;
15254;SDS011;7730;49.610;11.136;2022-08-11T13:27:33;4.97;;;2.00;;
15254;SDS011;7730;49.610;11.136;2022-08-11T13:30:02;4.22;;;1.95;;
15254;SDS011;7730;49.610;11.136;2022-08-11T13:32:47;3.30;;;1.90;;
15254;SDS011;7730;49.610;11.136;2022-08-11T13:35:15;3.67;;;1.88;;
15254;SDS011;7730;49.610;11.136;2022-08-11T13:37:43;5.00;;;1.90;;
15254;SDS011;7730;49.610;11.136;2022-08-11T13:40:11;4.72;;;1.98;;
15254;SDS011;7730;49.610;11.136;2022-08-11T13:42:39;3.88;;;2.00;;
15254;SDS011;7730;49.610;11.136;2022-08-11T13:45:08;1.45;;;1.17;;
15254;SDS011;7730;49.610;11.136;2022-08-11T13:47:35;3.78;;;1.77;;
15254;SDS011;7730;49.610;11.136;2022-08-11T13:50:04;4.57;;;1.98;;
15254;SDS011;7730;49.610;11.136;2022-08-11T13:52:31;4.10;;;1.90;;
15254;SDS011;7730;49.610;11.136;2022-08-11T13:54:59;5.05;;;1.48;;
15254;SDS011;7730;49.610;11.136;2022-08-11T13:57:26;2.17;;;1.70;;
15254;SDS011;7730;49.610;11.136;2022-08-11T13:59:57;3.88;;;1.60;;
15254;SDS011;7730;49.610;11.136;2022-08-11T14:02:35;2.60;;;1.48;;
15254;SDS011;7730;49.610;11.136;2022-08-11T14:05:04;3.75;;;1.73;;
15254;SDS011;7730;49.610;11.136;2022-08-11T14:07:33;7.00;;;2.00;;
15254;SDS011;7730;49.610;11.136;2022-08-11T14:10:01;4.10;;;2.08;;
15254;SDS011;7730;49.610;11.136;2022-08-11T14:12:32;4.55;;;2.00;;
15254;SDS011;7730;49.610;11.136;2022-08-11T14:15:18;4.53;;;2.00;;
15254;SDS011;7730;49.610;11.136;2022-08-11T14:17:51;4.72;;;1.98;;
15254;SDS011;7730;49.610;11.136;2022-08-11T14:20:20;4.05;;;1.95;;
15254;SDS011;7730;49.610;11.136;2022-08-11T14:22:48;2.67;;;1.70;;
15254;SDS011;7730;49.610;11.136;2022-08-11T14:25:15;6.80;;;2.10;;
15254;SDS011;7730;49.610;11.136;2022-08-11T14:27:42;2.17;;;1.55;;
15254;SDS011;7730;49.610;11.136;2022-08-11T14:30:13;3.47;;;1.92;;
15254;SDS011;7730;49.610;11.136;2022-08-11T14:32:56;4.63;;;1.90;;
15254;SDS011;7730;49.610;11.136;2022-08-11T14:35:24;2.95;;;1.60;;
15254;SDS011;7730;49.610;11.136;2022-08-11T14:37:51;5.00;;;2.10;;
15254;SDS011;7730;49.610;11.136;2022-08-11T14:40:18;6.15;;;2.20;;
15254;SDS011;7730;49.610;11.136;2022-08-11T14:43:03;3.38;;;1.90;;
15254;SDS011;7730;49.610;11.136;2022-08-11T14:45:48;4.78;;;1.85;;
15254;SDS011;7730;49.610;11.136;2022-08-11T14:48:35;6.10;;;2.20;;
15254;SDS011;7730;49.610;11.136;2022-08-11T14:51:02;5.93;;;2.00;;
15254;SDS011;7730;49.610;11.136;2022-08-11T14:53:30;4.47;;;1.92;;
15254;SDS011;7730;49.610;11.136;2022-08-11T14:55:58;4.55;;;1.90;;
15254;SDS011;7730;49.610;11.136;2022-08-11T14:58:43;5.20;;;2.00;;
15254;SDS011;7730;49.610;11.136;2022-08-11T15:01:10;7.25;;;1.70;;
15254;SDS011;7730;49.610;11.136;2022-08-11T15:03:53;4.10;;;1.83;;
15254;SDS011;7730;49.610;11.136;2022-08-11T15:06:20;1.63;;;1.25;;
15254;SDS011;7730;49.610;11.136;2022-08-11T15:08:47;3.83;;;1.88;;
15254;SDS011;7730;49.610;11.136;2022-08-11T15:11:21;3.45;;;1.70;;
15254;SDS011;7730;49.610;11.136;2022-08-11T15:14:07;7.78;;;1.80;;
15254;SDS011;7730;49.610;11.136;2022-08-11T15:16:35;3.80;;;1.60;;
15254;SDS011;7730;49.610;11.136;2022-08-11T15:19:21;3.22;;;1.70;;
15254;SDS011;7730;49.610;11.136;2022-08-11T15:21:57;3.58;;;1.95;;
15254;SDS011;7730;49.610;11.136;2022-08-11T15:24:42;4.18;;;1.92;;
15254;SDS011;7730;49.610;11.136;2022-08-11T15:27:10;4.90;;;2.10;;
15254;SDS011;7730;49.610;11.136;2022-08-11T15:29:56;6.07;;;2.30;;
15254;SDS011;7730;49.610;11.136;2022-08-11T15:32:41;9.73;;;2.10;;
15254;SDS011;7730;49.610;11.136;2022-08-11T15:35:37;3.78;;;2.03;;
15254;SDS011;7730;49.610;11.136;2022-08-11T15:38:22;3.15;;;1.85;;
15254;SDS011;7730;49.610;11.136;2022-08-11T15:40:49;2.20;;;1.50;;
15254;SDS011;7730;49.610;11.136;2022-08-11T15:43:40;8.68;;;2.10;;
15254;SDS011;7730;49.610;11.136;2022-08-11T15:46:27;3.88;;;1.75;;
15254;SDS011;7730;49.610;11.136;2022-08-11T15:48:55;3.13;;;1.75;;
15254;SDS011;7730;49.610;11.136;2022-08-11T15:51:27;5.20;;;1.92;;
15254;SDS011;7730;49.610;11.136;2022-08-11T15:53:56;4.22;;;1.83;;
15254;SDS011;7730;49.610;11.136;2022-08-11T15:56:23;4.95;;;1.95;;
15254;SDS011;7730;49.610;11.136;2022-08-11T15:58:52;4.40;;;1.90;;
15254;SDS011;7730;49.610;11.136;2022-08-11T16:01:38;7.30;;;1.88;;
15254;SDS011;7730;49.610;11.136;2022-08-11T16:04:24;5.97;;;2.05;;
15254;SDS011;7730;49.610;11.136;2022-08-11T16:06:53;3.17;;;1.80;;
15254;SDS011;7730;49.610;11.136;2022-08-11T16:09:27;4.70;;;2.00;;
15254;SDS011;7730;49.610;11.136;2022-08-11T16:11:55;4.97;;;2.00;;
15254;SDS011;7730;49.610;11.136;2022-08-11T16:14:22;5.22;;;2.10;;
15254;SDS011;7730;49.610;11.136;2022-08-11T16:17:09;7.13;;;1.83;;
15254;SDS011;7730;49.610;11.136;2022-08-11T16:19:36;3.22;;;1.80;;